Time;durP1;ratioP1;P1;durP2;ratioP2;P2;SDS_P1;SDS_P2;PMS_P1;PMS_P2;Temp;Humidity;BMP_temperature;BMP_pressure;BME280_temperature;BME280_humidity;BME280_pressure;Samples;Min_cycle;Max_cycle;Signal;HPM_P1;HPM_P2
2022/07/05 00:00:26;;;;;;;5.05;3.40;;;;;;;22.95;51.27;99347.06;5003144;28;20025;-94
2022/07/05 00:02:52;;;;;;;6.10;3.10;;;;;;;22.94;49.67;99343.53;5002820;28;20024;-94
2022/07/05 00:05:17;;;;;;;6.30;3.00;;;;;;;22.83;50.65;99333.41;5002706;28;20384;-93
2022/07/05 00:07:43;;;;;;;5.65;3.08;;;;;;;22.84;49.42;99330.31;5003626;28;20052;-92
2022/07/05 00:10:08;;;;;;;7.10;2.90;;;;;;;;;;5003141;28;20083;-93
2022/07/05 00:12:33;;;;;;;7.70;2.30;;;;;;;23.22;43.69;99350.16;5018971;28;20063;-93
2022/07/05 00:15:00;;;;;;;3.75;2.17;;;;;;;23.15;43.53;99334.28;5001979;28;20028;-93
2022/07/05 00:17:25;;;;;;;4.82;2.00;;;;;;;23.14;43.19;99328.00;5002143;28;20110;-94
2022/07/05 00:19:51;;;;;;;6.13;2.85;;;;;;;23.05;48.24;99324.63;5002145;28;20550;-92
2022/07/05 00:22:16;;;;;;;4.70;2.97;;;;;;;23.11;50.10;99338.91;5002179;28;20028;-91
2022/07/05 00:24:42;;;;;;;5.07;2.67;;;;;;;22.90;50.77;99328.13;5001930;28;20013;-95
2022/07/05 00:27:07;;;;;;;7.18;2.80;;;;;;;22.80;51.42;99324.72;5002615;28;20029;-95
2022/07/05 00:29:32;;;;;;;7.60;3.10;;;;;;;22.69;51.27;99311.88;5003337;28;20048;-95
2022/07/05 00:31:58;;;;;;;5.55;2.90;;;;;;;22.64;51.75;99332.16;5006222;28;20060;-92
2022/07/05 00:34:24;;;;;;;5.00;2.92;;;;;;;22.64;51.60;99325.84;5007372;28;20021;-93
2022/07/05 00:36:49;;;;;;;6.30;3.25;;;;;;;22.58;51.94;99326.13;5005727;28;20020;-92
2022/07/05 00:39:15;;;;;;;9.05;3.35;;;;;;;22.55;53.45;99323.28;5005872;28;20441;-92
2022/07/05 00:41:40;;;;;;;3.65;3.28;;;;;;;22.49;53.44;99319.19;5005753;28;20025;-92
2022/07/05 00:44:08;;;;;;;5.32;3.10;;;;;;;22.37;54.19;99314.53;5006281;28;20032;-92
2022/07/05 00:46:36;;;;;;;6.13;3.00;;;;;;;22.29;53.72;99305.31;5005944;28;20036;-92
2022/07/05 00:49:02;;;;;;;6.97;3.03;;;;;;;22.12;53.00;99286.38;5006353;28;20111;-92
2022/07/05 00:51:29;;;;;;;6.82;2.90;;;;;;;22.28;52.61;99306.44;5005695;28;20479;-93
2022/07/05 00:53:55;;;;;;;8.70;2.88;;;;;;;22.23;52.23;99298.50;5004907;28;20025;-93
2022/07/05 00:56:20;;;;;;;4.63;2.80;;;;;;;22.28;50.70;99294.69;5004893;28;20021;-92
2022/07/05 00:58:46;;;;;;;4.72;2.58;;;;;;;22.30;50.09;99286.91;5005252;28;20039;-92
2022/07/05 01:01:12;;;;;;;4.65;2.33;;;;;;;22.52;46.82;99307.53;5005316;28;20021;-92
2022/07/05 01:03:38;;;;;;;3.10;2.08;;;;;;;22.53;46.43;99303.63;5005429;28;20032;-92
2022/07/05 01:06:07;;;;;;;5.93;2.38;;;;;;;22.35;46.13;99292.97;5004950;28;20059;-93
2022/07/05 01:08:33;;;;;;;3.35;2.10;;;;;;;22.44;46.18;99300.25;5021661;28;20080;-93
2022/07/05 01:10:59;;;;;;;5.05;2.05;;;;;;;22.48;45.61;99303.88;5005349;28;20021;-92
2022/07/05 01:13:24;;;;;;;27.67;4.05;;;;;;;22.47;44.89;99300.31;5005448;28;20483;-92
2022/07/05 01:15:50;;;;;;;4.93;2.47;;;;;;;22.55;44.95;99309.56;5020946;28;20021;-92
2022/07/05 01:18:15;;;;;;;4.55;2.03;;;;;;;22.61;44.51;99302.66;5020951;28;20025;-92
2022/07/05 01:20:41;;;;;;;5.40;2.20;;;;;;;22.61;44.26;99291.69;5004350;28;20094;-93
2022/07/05 01:23:07;;;;;;;5.20;2.15;;;;;;;22.71;44.32;99304.91;5004401;28;20017;-92
2022/07/05 01:25:32;;;;;;;7.25;2.40;;;;;;;22.65;44.05;99289.03;5004209;28;20025;-92
2022/07/05 01:27:59;;;;;;;10.50;2.20;;;;;;;22.44;45.75;99292.00;5003985;28;20487;-93
2022/07/05 01:30:24;;;;;;;6.60;2.72;;;;;;;22.31;45.82;99291.25;5004105;28;20064;-93
2022/07/05 01:32:50;;;;;;;4.10;2.55;;;;;;;22.39;46.33;99310.31;5003873;28;20055;-93
2022/07/05 01:35:23;;;;;;;8.90;2.20;;;;;;;22.12;47.25;99283.63;5004093;28;20107;-93
2022/07/05 01:37:49;;;;;;;11.43;2.25;;;;;;;22.13;47.10;99296.19;5005616;28;20028;-93
2022/07/05 01:40:14;;;;;;;7.75;2.50;;;;;;;22.08;47.83;99296.44;5004071;28;20028;-93
2022/07/05 01:42:40;;;;;;;5.38;2.28;;;;;;;21.98;47.95;99295.78;5004139;28;20028;-93
2022/07/05 01:45:06;;;;;;;11.68;2.13;;;;;;;21.96;47.93;99302.75;5003591;28;20078;-93
2022/07/05 01:47:45;;;;;;;9.95;2.35;;;;;;;21.91;48.28;99303.78;5020420;28;20028;-92
2022/07/05 01:50:12;;;;;;;4.60;2.40;;;;;;;21.84;47.91;99303.56;5004587;28;20025;-93
2022/07/05 01:52:38;;;;;;;8.13;2.88;;;;;;;21.78;48.42;99296.75;5003950;28;20491;-93
2022/07/05 01:55:04;;;;;;;6.35;2.25;;;;;;;21.82;48.55;99305.06;5003531;28;20021;-92
2022/07/05 01:57:29;;;;;;;3.92;2.20;;;;;;;21.65;48.17;99276.78;5020625;28;20091;-92
2022/07/05 01:59:55;;;;;;;5.10;2.30;;;;;;;21.82;47.73;99299.59;5004395;28;20028;-93
2022/07/05 02:02:20;;;;;;;5.35;2.17;;;;;;;21.95;47.01;99296.47;5004435;28;20036;-93
2022/07/05 02:04:46;;;;;;;7.70;2.30;;;;;;;21.94;47.04;99292.13;5004287;28;20426;-93
2022/07/05 02:07:11;;;;;;;3.35;2.13;;;;;;;21.83;46.87;99299.25;5003788;28;20065;-93
2022/07/05 02:09:37;;;;;;;6.97;2.28;;;;;;;21.82;47.56;99305.06;5004499;28;20037;-93
2022/07/05 02:12:03;;;;;;;4.05;2.58;;;;;;;21.73;48.39;99300.53;5004025;28;20399;-92
2022/07/05 02:14:28;;;;;;;2.70;2.05;;;;;;;21.79;47.61;99307.38;5003874;28;20112;-93
2022/07/05 02:16:54;;;;;;;2.60;1.92;;;;;;;21.90;46.97;99304.94;5004033;28;20032;-92
2022/07/05 02:19:19;;;;;;;4.53;2.28;;;;;;;21.89;46.23;99297.06;5004009;28;20032;-93
2022/07/05 02:21:45;;;;;;;5.22;2.00;;;;;;;22.06;46.11;99309.69;5003967;28;20083;-93
2022/07/05 02:24:11;;;;;;;7.95;2.40;;;;;;;22.08;45.70;99299.16;5003113;28;20431;-94
2022/07/05 02:26:36;;;;;;;8.50;2.30;;;;;;;21.99;45.61;99291.88;5003728;28;20078;-92
2022/07/05 02:29:05;;;;;;;7.57;2.78;;;;;;;21.78;47.74;99283.03;5003599;28;20083;-93
2022/07/05 02:31:31;;;;;;;4.30;2.40;;;;;;;21.83;46.86;99293.78;5003280;28;20490;-92
2022/07/05 02:33:56;;;;;;;4.35;2.20;;;;;;;21.81;47.65;99309.75;5003546;28;20086;-92
2022/07/05 02:36:22;;;;;;;10.50;2.70;;;;;;;21.72;47.94;99306.34;5003188;28;20021;-93
2022/07/05 02:38:47;;;;;;;4.88;2.50;;;;;;;21.70;47.12;99305.88;5002924;28;20032;-93
2022/07/05 02:41:13;;;;;;;7.00;2.28;;;;;;;21.58;48.19;99296.53;5003853;28;20031;-92
2022/07/05 02:43:38;;;;;;;2.53;2.10;;;;;;;21.65;49.32;99319.84;5003644;28;20028;-93
2022/07/05 02:46:04;;;;;;;3.60;2.25;;;;;;;21.60;48.53;99318.09;5003185;28;20033;-92
2022/07/05 02:48:30;;;;;;;5.85;2.40;;;;;;;21.46;48.98;99309.44;5003806;28;20029;-93
2022/07/05 02:50:56;;;;;;;3.97;2.25;;;;;;;21.45;48.43;99305.09;5018995;28;20035;-92
2022/07/05 02:53:21;;;;;;;5.88;2.47;;;;;;;21.43;48.88;99315.59;5002871;28;20052;-93
2022/07/05 02:55:47;;;;;;;5.75;2.67;;;;;;;21.37;49.03;99315.81;5003075;28;20051;-93
2022/07/05 02:58:12;;;;;;;3.70;2.30;;;;;;;21.40;49.34;99322.53;5004331;28;20020;-92
2022/07/05 03:00:38;;;;;;;9.20;2.50;;;;;;;21.32;49.32;99304.28;5004587;28;20025;-94
2022/07/05 03:03:03;;;;;;;7.57;2.40;;;;;;;21.28;49.76;99317.06;5005102;28;20032;-93
2022/07/05 03:05:28;;;;;;;6.35;2.20;;;;;;;21.39;49.93;99320.94;5002342;28;20032;-92
2022/07/05 03:07:54;;;;;;;4.05;2.42;;;;;;;21.27;49.37;99320.91;5002880;28;20487;-92
2022/07/05 03:10:19;;;;;;;3.42;2.30;;;;;;;21.23;49.71;99311.78;5003678;28;20067;-93
2022/07/05 03:12:45;;;;;;;5.63;2.33;;;;;;;21.19;50.10;99320.69;5003286;28;20025;-93
2022/07/05 03:15:10;;;;;;;6.57;2.63;;;;;;;21.24;50.33;99332.56;5003521;28;20049;-92
2022/07/05 03:17:36;;;;;;;6.32;2.63;;;;;;;21.36;50.76;99333.38;5002976;28;20025;-92
2022/07/05 03:20:02;;;;;;;4.95;2.80;;;;;;;21.25;51.46;99312.25;5002330;28;20021;-90
2022/07/05 03:22:27;;;;;;;4.25;2.80;;;;;;;21.30;53.34;99321.03;5002006;28;20020;-91
2022/07/05 03:24:53;;;;;;;4.10;2.70;;;;;;;21.34;52.66;99326.66;5002609;28;20467;-91
2022/07/05 03:27:18;;;;;;;7.00;3.30;;;;;;;21.39;52.18;99327.22;5018518;28;20391;-90
2022/07/05 03:29:43;;;;;;;5.13;3.03;;;;;;;21.42;51.31;99324.94;5002438;28;20025;-91
2022/07/05 03:32:09;;;;;;;4.03;2.88;;;;;;;21.30;51.87;99320.25;5001724;28;20021;-91
2022/07/05 03:34:34;;;;;;;7.88;3.35;;;;;;;21.27;51.75;99318.19;5002169;28;20017;-93
2022/07/05 03:37:00;;;;;;;5.38;2.60;;;;;;;21.09;52.60;99306.66;5002870;28;20029;-93
2022/07/05 03:39:25;;;;;;;6.75;2.92;;;;;;;21.17;51.12;99319.44;5002781;28;20025;-93
2022/07/05 03:41:52;;;;;;;5.05;2.42;;;;;;;21.18;51.35;99315.56;5021517;28;20502;-94
2022/07/05 03:44:17;;;;;;;6.93;2.60;;;;;;;21.20;50.59;99311.34;5002435;28;20021;-94
2022/07/05 03:46:42;;;;;;;7.30;3.22;;;;;;;21.18;51.58;99312.81;5002804;28;20033;-93
2022/07/05 03:49:08;;;;;;;5.35;2.80;;;;;;;21.09;51.85;99312.94;5002674;28;20013;-94
2022/07/05 03:51:34;;;;;;;5.88;3.05;;;;;;;21.16;52.11;99309.63;5002386;28;20032;-94
2022/07/05 03:53:59;;;;;;;5.93;2.58;;;;;;;21.13;52.68;99304.84;5002189;28;20021;-93
2022/07/05 03:56:25;;;;;;;4.15;2.58;;;;;;;21.17;53.25;99314.75;5004001;28;20384;-92
2022/07/05 03:58:50;;;;;;;8.07;2.65;;;;;;;20.95;54.05;99296.03;5002290;28;20031;-94
2022/07/05 04:01:16;;;;;;;20.90;4.25;;;;;;;20.95;54.04;99315.19;5002455;28;20495;-93
2022/07/05 04:03:42;;;;;;;7.45;3.20;;;;;;;20.92;53.26;99311.19;5005704;28;20031;-93
2022/07/05 04:06:10;;;;;;;8.55;3.38;;;;;;;20.90;53.58;99308.00;5006012;28;20048;-93
2022/07/05 04:08:36;;;;;;;11.50;3.72;;;;;;;20.97;53.81;99318.38;5006382;28;20567;-93
2022/07/05 04:11:04;;;;;;;4.97;3.25;;;;;;;20.99;53.70;99316.09;5006538;28;20025;-91
2022/07/05 04:13:30;;;;;;;20.33;6.53;;;;;;;21.02;52.72;99303.66;5006127;28;20021;-93
2022/07/05 04:15:55;;;;;;;5.55;3.42;;;;;;;21.04;53.59;99302.19;5006385;28;20028;-93
2022/07/05 04:18:21;;;;;;;8.82;3.90;;;;;;;21.10;52.47;99313.72;5006016;28;20028;-94
2022/07/05 04:20:47;;;;;;;7.30;3.65;;;;;;;21.15;50.62;99317.03;5006095;28;20060;-93
2022/07/05 04:23:13;;;;;;;4.90;2.78;;;;;;;21.03;50.72;99291.59;5006395;28;20024;-94
2022/07/05 04:25:38;;;;;;;4.88;3.00;;;;;;;21.19;50.73;99317.97;5022760;28;20048;-94
2022/07/05 04:28:04;;;;;;;6.95;2.97;;;;;;;21.19;50.18;99309.75;5006735;28;20025;-93
2022/07/05 04:30:29;;;;;;;5.68;3.38;;;;;;;21.40;50.32;99319.81;5005603;28;20021;-91
2022/07/05 04:32:55;;;;;;;14.55;4.03;;;;;;;21.32;51.17;99310.56;5005589;28;20025;-93
2022/07/05 04:35:21;;;;;;;16.80;6.45;;;;;;;21.42;50.93;99323.03;5006646;28;20040;-94
2022/07/05 04:37:46;;;;;;;7.07;3.20;;;;;;;21.40;52.04;99312.38;5022645;28;20078;-93
2022/07/05 04:40:13;;;;;;;11.90;5.85;;;;;;;21.62;51.06;99315.03;5005978;28;20021;-94
2022/07/05 04:42:38;;;;;;;12.20;4.13;;;;;;;21.66;50.58;99305.75;5006913;28;20025;-94
2022/07/05 04:45:05;;;;;;;11.82;4.28;;;;;;;21.80;49.78;99297.19;5006661;28;20024;-93
2022/07/05 04:47:31;;;;;;;9.95;4.07;;;;;;;22.03;48.65;99297.47;5008620;28;20027;-95
2022/07/05 04:50:02;;;;;;;8.07;3.97;;;;;;;22.11;47.32;99295.75;5010100;28;20076;-94
2022/07/05 04:52:28;;;;;;;19.30;11.33;;;;;;;22.09;48.38;99287.88;5044713;28;20096;-95
2022/07/05 04:55:02;;;;;;;17.08;5.72;;;;;;;22.29;48.84;99294.34;5009994;28;20268;-96
2022/07/05 04:57:36;;;;;;;5.07;3.05;;;;;;;22.46;48.55;99298.72;5015649;28;20021;-94
2022/07/05 05:00:01;;;;;;;9.85;3.83;;;;;;;22.62;48.84;99307.00;5035644;28;20033;-95
2022/07/05 05:02:27;;;;;;;12.00;4.55;;;;;;;22.64;48.72;99290.19;5018733;28;20059;-95
2022/07/05 05:04:54;;;;;;;19.15;5.28;;;;;;;22.88;47.82;99313.97;5007477;28;20027;-92
2022/07/05 05:07:20;;;;;;;103.78;20.85;;;;;;;22.99;46.83;99324.06;5007439;28;20056;-94
2022/07/05 05:09:47;;;;;;;15.13;8.82;;;;;;;23.07;46.87;99316.81;5213958;22;20248;-95
2022/07/05 05:12:17;;;;;;;7.10;4.13;;;;;;;23.28;46.91;99326.75;4990222;28;20066;-96
2022/07/05 05:14:45;;;;;;;7.85;4.53;;;;;;;23.37;47.06;99310.91;5000780;28;20113;-95
2022/07/05 05:17:10;;;;;;;6.55;4.57;;;;;;;23.48;45.17;99320.19;4996886;28;20061;-92
2022/07/05 05:19:45;;;;;;;9.63;3.30;;;;;;;23.50;45.27;99308.84;5005290;28;20529;-94
2022/07/05 05:22:12;;;;;;;7.43;4.05;;;;;;;23.44;46.88;99305.56;5104614;23;20021;-94
2022/07/05 05:40:51;;;;;;;12.85;5.32;;;;;;;23.83;45.72;99330.44;5222703;22;20115;-94
2022/07/05 05:43:22;;;;;;;10.68;5.40;;;;;;;23.97;45.80;99330.78;5005873;28;20060;-94
2022/07/05 05:45:50;;;;;;;10.50;6.35;;;;;;;24.17;44.95;99339.03;5009989;28;20025;-94
2022/07/05 05:48:15;;;;;;;13.23;10.05;;;;;;;24.21;44.08;99345.41;5022945;28;20053;-94
2022/07/05 05:50:41;;;;;;;167.75;145.00;;;;;;;24.31;44.11;99344.84;5007592;28;20087;-94
2022/07/05 05:53:07;;;;;;;10.00;5.97;;;;;;;24.52;43.38;99355.53;5009912;28;20105;-94
2022/07/05 05:55:38;;;;;;;7.82;3.85;;;;;;;24.65;42.80;99356.16;5013518;28;20220;-95
2022/07/05 05:58:16;;;;;;;8.68;4.13;;;;;;;24.85;41.49;99345.94;5011643;28;20509;-95
2022/07/05 06:00:47;;;;;;;12.30;3.80;;;;;;;24.91;42.91;99343.69;5011017;28;20016;-95
2022/07/05 06:03:13;;;;;;;;;;;;;;;25.12;42.73;99359.78;5017434;28;20066;-95
2022/07/05 06:05:57;;;;;;;7.90;3.92;;;;;;;25.07;42.84;99341.59;5029351;28;19986;-96
2022/07/05 06:08:30;;;;;;;6.22;3.47;;;;;;;25.22;42.75;99344.66;5063201;28;20111;-96
2022/07/05 06:11:46;;;;;;;6.83;4.37;;;;;;;25.34;42.19;99336.97;5020833;28;20076;-96
2022/07/05 06:13:55;;;;;;;7.10;5.80;;;;;;;25.46;42.41;99352.50;5035808;28;20171;-94
2022/07/05 06:16:21;;;;;;;6.88;3.90;;;;;;;25.57;42.17;99347.97;5011708;28;20029;-95
2022/07/05 06:18:50;;;;;;;10.25;4.10;;;;;;;25.71;41.98;99341.06;5007226;28;20112;-96
2022/07/05 06:21:21;;;;;;;8.10;4.45;;;;;;;25.71;41.13;99344.66;5010978;28;20444;-96
2022/07/05 06:51:05;;;;;;;11.10;4.95;;;;;;;26.76;40.38;99358.66;4994130;28;20129;-91
2022/07/05 06:53:57;;;;;;;14.07;6.75;;;;;;;26.91;40.86;99342.25;4966691;28;20033;-95
2022/07/05 06:56:55;;;;;;;;;;;;;;;;;;;;;
2022/07/05 06:59:40;;;;;;;18.27;6.30;;;;;;;27.27;38.77;99339.81;4996624;28;20058;-94
2022/07/05 07:02:22;;;;;;;;;;;;;;;;;;;;;
2022/07/05 07:04:50;;;;;;;9.65;4.82;;;;;;;27.52;37.79;99329.00;4974273;28;20090;-96
2022/07/05 07:20:53;;;;;;;11.13;4.20;;;;;;;28.15;35.49;99333.34;5006697;28;20054;-95
2022/07/05 07:23:55;;;;;;;6.85;3.70;;;;;;;28.15;35.03;99327.00;4930904;29;20091;-95
2022/07/05 07:30:34;;;;;;;17.33;10.45;;;;;;;28.30;36.04;99328.66;4882554;29;20093;-95
2022/07/05 07:33:32;;;;;;;9.15;6.22;;;;;;;28.25;36.41;99317.16;4891439;29;20105;-96
2022/07/05 07:36:27;;;;;;;6.78;3.38;;;;;;;28.38;34.31;99337.78;4877910;29;20120;-95
2022/07/05 07:42:30;;;;;;;5.38;3.22;;;;;;;28.52;32.66;99324.03;4889041;29;20059;-94
2022/07/05 07:44:56;;;;;;;7.60;3.60;;;;;;;28.57;33.84;99320.84;4841415;29;20108;-95
2022/07/05 07:50:11;;;;;;;8.25;3.50;;;;;;;28.90;34.23;99323.72;4910231;29;20056;-94
2022/07/05 07:52:40;;;;;;;4.22;2.97;;;;;;;29.04;35.13;99326.50;4892586;29;20064;-94
2022/07/05 07:55:36;;;;;;;9.02;4.47;;;;;;;29.10;36.08;99315.81;4890651;29;20040;-95
2022/07/05 07:58:03;;;;;;;8.60;4.35;;;;;;;29.21;36.30;99317.41;4909776;29;20130;-94
2022/07/05 08:00:52;;;;;;;9.20;3.83;;;;;;;29.26;36.57;99305.16;4888563;29;20036;-94
2022/07/05 08:03:20;;;;;;;7.30;3.53;;;;;;;29.35;37.58;99310.28;4937410;28;20453;-95
2022/07/05 08:05:54;;;;;;;12.77;6.03;;;;;;;29.49;38.02;99312.25;4965733;28;20042;-95
2022/07/05 08:08:34;;;;;;;5.65;3.50;;;;;;;29.60;37.63;99330.47;4966988;28;20179;-94
2022/07/05 08:11:00;;;;;;;9.23;3.60;;;;;;;29.56;37.14;99313.03;4965098;28;20037;-93
2022/07/05 08:13:29;;;;;;;9.98;4.45;;;;;;;29.84;37.70;99343.94;4966211;28;20401;-91
2022/07/05 08:15:54;;;;;;;6.60;4.22;;;;;;;29.84;37.47;99310.63;4949721;28;20023;-94
2022/07/05 08:24:29;;;;;;;8.38;3.72;;;;;;;30.17;36.37;99303.78;4987306;28;20069;-95
2022/07/05 08:27:02;;;;;;;10.50;3.67;;;;;;;30.37;34.86;99318.81;4956145;28;20034;-94
2022/07/05 08:29:33;;;;;;;6.85;3.70;;;;;;;30.33;35.14;99306.91;4949966;28;20038;-95
2022/07/05 08:32:04;;;;;;;8.73;4.00;;;;;;;30.41;34.44;99307.69;4951893;28;20026;-94
2022/07/05 08:34:45;;;;;;;;;;;;;;;30.64;34.00;99329.38;4954420;28;20106;-96
2022/07/05 08:37:20;;;;;;;9.80;4.03;;;;;;;30.65;33.21;99311.50;4969422;28;19909;-95
2022/07/05 08:39:45;;;;;;;11.55;3.97;;;;;;;30.78;32.82;99320.97;4952837;28;20076;-95
2022/07/05 08:42:14;;;;;;;8.80;3.83;;;;;;;30.88;33.94;99308.22;4951789;28;20022;-93
2022/07/05 08:44:49;;;;;;;10.43;4.20;;;;;;;31.09;32.19;99329.53;4972512;28;20026;-96
2022/07/05 08:47:15;;;;;;;11.70;4.88;;;;;;;31.08;33.33;99313.25;4951126;28;20030;-94
2022/07/05 08:49:40;;;;;;;10.07;4.72;;;;;;;31.21;31.84;99314.31;4952347;28;20038;-96
2022/07/05 08:52:33;;;;;;;8.40;3.85;;;;;;;31.14;29.95;99314.38;4955379;28;20026;-95
2022/07/05 08:54:59;;;;;;;7.60;4.25;;;;;;;31.31;30.41;99316.22;4974154;28;20413;-92
2022/07/05 08:57:24;;;;;;;19.15;8.88;;;;;;;31.33;30.75;99296.34;4949682;28;20098;-93
2022/07/05 08:59:55;;;;;;;13.82;6.22;;;;;;;31.47;30.88;99314.94;4955211;28;20100;-95
2022/07/05 09:02:21;;;;;;;6.18;4.10;;;;;;;31.53;30.12;99302.94;4949930;28;20034;-94
2022/07/05 09:05:12;;;;;;;9.60;4.07;;;;;;;31.60;29.37;99299.28;4961149;28;20046;-96
2022/07/05 09:07:58;;;;;;;12.70;6.22;;;;;;;31.68;28.95;99311.94;4923527;29;20040;-95
2022/07/05 09:10:28;;;;;;;14.40;5.30;;;;;;;31.72;28.89;99306.34;4879048;29;20067;-95
2022/07/05 09:13:04;;;;;;;12.80;4.97;;;;;;;31.73;29.04;99293.97;4892966;29;20119;-95
2022/07/05 09:15:34;;;;;;;10.73;6.05;;;;;;;31.82;28.76;99292.28;4910951;29;20043;-96
2022/07/05 09:18:00;;;;;;;9.30;3.60;;;;;;;31.82;28.67;99297.84;4895897;29;20044;-95
2022/07/05 09:20:53;;;;;;;;;;;;;;;;;;;;;
2022/07/05 09:23:20;;;;;;;13.63;4.28;;;;;;;32.17;29.00;99317.41;4908161;29;20127;-94
2022/07/05 09:25:48;;;;;;;9.02;5.30;;;;;;;32.19;28.04;99295.47;4878835;29;20040;-94
2022/07/05 09:28:29;;;;;;;60.38;7.88;;;;;;;32.21;27.71;99290.28;4896663;29;20040;-95
2022/07/05 09:31:15;;;;;;;11.77;4.00;;;;;;;32.35;27.74;99300.44;4902451;29;20083;-96
2022/07/05 09:33:51;;;;;;;11.73;4.18;;;;;;;32.48;27.05;99298.69;5162223;23;20041;-96
2022/07/05 09:42:27;;;;;;;15.90;6.00;;;;;;;32.61;27.66;99291.34;5082306;22;20058;-95
2022/07/05 09:44:59;;;;;;;9.55;4.57;;;;;;;32.67;27.72;99294.44;4952111;28;20089;-94
2022/07/05 09:47:27;;;;;;;10.25;3.70;;;;;;;32.72;27.18;99290.38;4953038;28;20022;-96
2022/07/05 09:49:56;;;;;;;9.65;4.45;;;;;;;32.64;26.82;99270.19;4952777;28;20098;-95
2022/07/05 09:52:46;;;;;;;5.75;3.80;;;;;;;32.63;26.88;99276.97;4969325;28;20053;-95
2022/07/05 09:56:07;;;;;;;10.95;4.90;;;;;;;32.79;28.00;99291.09;4951879;29;20513;-95
2022/07/05 09:58:35;;;;;;;14.38;4.22;;;;;;;32.74;27.79;99279.59;4891062;29;20131;-93
2022/07/05 10:01:01;;;;;;;10.57;4.30;;;;;;;32.69;27.32;99275.31;4853736;29;20063;-92
2022/07/05 10:03:29;;;;;;;8.27;5.90;;;;;;;32.90;28.17;99281.75;4881243;29;20045;-92
2022/07/05 10:08:46;;;;;;;17.92;10.00;;;;;;;32.93;26.67;99270.53;4880743;29;20063;-92
2022/07/05 10:11:21;;;;;;;8.95;3.47;;;;;;;32.86;26.87;99253.91;4871862;29;20535;-92
2022/07/05 10:13:53;;;;;;;8.48;3.97;;;;;;;32.85;26.82;99265.50;4869638;29;20068;-93
2022/07/05 10:17:04;;;;;;;9.68;3.75;;;;;;;32.87;26.87;99252.69;4874261;29;20175;-94
2022/07/05 10:19:35;;;;;;;7.10;3.30;;;;;;;33.02;26.54;99259.63;4900925;29;20511;-95
2022/07/05 10:22:01;;;;;;;19.48;3.85;;;;;;;33.09;27.83;99263.53;4887531;29;20044;-95
2022/07/05 10:24:43;;;;;;;9.10;3.47;;;;;;;33.12;27.38;99252.31;4886503;29;20040;-95
2022/07/05 10:27:08;;;;;;;8.55;3.70;;;;;;;33.23;27.47;99268.88;4932591;29;20075;-94
2022/07/05 10:29:34;;;;;;;6.72;3.28;;;;;;;32.98;27.04;99255.31;4921968;28;20042;-93
2022/07/05 10:32:00;;;;;;;8.45;3.60;;;;;;;33.11;27.44;99242.38;4943636;28;20484;-93
2022/07/05 10:34:25;;;;;;;12.20;4.00;;;;;;;33.26;27.30;99244.91;4942928;28;20022;-94
2022/07/05 10:36:53;;;;;;;6.80;4.00;;;;;;;33.34;27.63;99247.13;4944843;28;20051;-93
2022/07/05 10:39:23;;;;;;;14.52;3.95;;;;;;;33.29;27.15;99236.47;4960616;28;20084;-93
2022/07/05 10:41:49;;;;;;;9.97;5.13;;;;;;;33.39;26.96;99243.88;4977182;28;20514;-94
2022/07/05 10:44:31;;;;;;;14.32;8.98;;;;;;;33.57;26.99;99245.53;4945779;28;20193;-94
2022/07/05 10:47:13;;;;;;;8.73;4.93;;;;;;;33.60;26.75;99236.31;4946257;28;20026;-94
2022/07/05 10:49:39;;;;;;;10.02;4.97;;;;;;;33.65;27.00;99232.25;4945910;28;20026;-94
2022/07/05 10:52:22;;;;;;;10.63;4.78;;;;;;;33.75;26.94;99223.66;4944833;28;20035;-95
2022/07/05 10:55:19;;;;;;;18.15;13.07;;;;;;;33.93;26.20;99245.63;4949465;28;20037;-94
2022/07/05 10:57:44;;;;;;;12.30;4.00;;;;;;;33.91;25.44;99238.88;4980935;28;20026;-96
2022/07/05 11:00:10;;;;;;;10.95;4.07;;;;;;;33.99;25.84;99241.13;4949398;28;20052;-94
2022/07/05 11:02:39;;;;;;;10.13;3.50;;;;;;;34.01;25.99;99238.69;4961066;28;20030;-93
2022/07/05 11:05:07;;;;;;;13.20;4.20;;;;;;;34.07;25.56;99236.16;4962351;28;20027;-94
2022/07/05 11:08:04;;;;;;;8.98;3.90;;;;;;;34.01;25.83;99215.53;4951059;28;20041;-93
2022/07/05 11:10:33;;;;;;;6.05;3.83;;;;;;;34.01;26.62;99215.53;4977396;28;20125;-94
2022/07/05 11:12:58;;;;;;;10.18;4.32;;;;;;;34.17;26.96;99237.97;4956306;28;20052;-93
2022/07/05 11:15:24;;;;;;;9.05;3.60;;;;;;;34.05;27.01;99218.25;4962135;28;20077;-93
2022/07/05 11:17:49;;;;;;;10.68;3.63;;;;;;;34.09;26.48;99219.75;4962726;28;20027;-95
2022/07/05 11:20:31;;;;;;;7.72;4.10;;;;;;;34.14;26.53;99221.25;4930341;28;20109;-94
2022/07/05 11:23:09;;;;;;;7.70;3.85;;;;;;;34.13;26.57;99208.53;4962267;28;20029;-95
2022/07/05 11:25:39;;;;;;;9.48;3.80;;;;;;;34.11;26.74;99202.53;4967417;28;20046;-91
2022/07/05 11:28:12;;;;;;;8.15;4.00;;;;;;;34.16;26.77;99199.25;4962088;28;20128;-93
2022/07/05 11:30:53;;;;;;;10.50;4.00;;;;;;;34.17;27.04;99198.84;4966952;28;20523;-92
2022/07/05 11:33:37;;;;;;;6.32;3.67;;;;;;;34.30;26.43;99212.13;4966620;28;20101;-91
2022/07/05 11:36:04;;;;;;;13.77;3.90;;;;;;;34.20;26.76;99209.16;4965307;28;20033;-91
2022/07/05 11:38:32;;;;;;;7.53;3.90;;;;;;;34.10;26.38;99204.56;4962004;28;20045;-94
2022/07/05 11:41:14;;;;;;;9.52;4.05;;;;;;;34.32;26.97;99199.28;4962674;28;20033;-89
2022/07/05 11:43:41;;;;;;;14.68;3.60;;;;;;;34.42;26.68;99198.25;4963887;28;20080;-92
2022/07/05 11:46:06;;;;;;;15.45;4.60;;;;;;;34.46;26.85;99189.00;4974642;28;20030;-90
2022/07/05 11:48:32;;;;;;;9.75;4.25;;;;;;;34.53;26.46;99200.00;4945057;28;20034;-91
2022/07/05 11:50:57;;;;;;;10.95;3.80;;;;;;;34.52;26.61;99195.66;4928014;28;20062;-92
2022/07/05 11:53:27;;;;;;;9.38;5.13;;;;;;;34.48;26.34;99192.94;4950453;28;20030;-91
2022/07/05 11:55:59;;;;;;;10.77;4.10;;;;;;;34.65;26.08;99196.53;4964346;28;20022;-89
2022/07/05 11:58:34;;;;;;;6.00;3.67;;;;;;;34.61;25.69;99191.00;4946305;28;20031;-94
2022/07/05 12:01:06;;;;;;;12.10;4.15;;;;;;;34.59;26.69;99190.66;4943221;28;20086;-93
2022/07/05 12:03:41;;;;;;;10.80;3.90;;;;;;;34.55;26.53;99184.38;4929564;28;20493;-93
2022/07/05 12:06:17;;;;;;;8.40;5.70;;;;;;;34.60;26.58;99180.28;4929766;28;20042;-95
2022/07/05 12:08:45;;;;;;;12.48;7.82;;;;;;;34.57;26.60;99195.13;4930300;28;20031;-96
2022/07/05 12:14:23;;;;;;;12.50;4.70;;;;;;;34.52;26.71;99164.91;4913118;29;20036;-95
2022/07/05 12:16:50;;;;;;;8.80;4.05;;;;;;;34.55;26.65;99170.41;4965885;28;20045;-91
2022/07/05 12:19:26;;;;;;;9.43;3.78;;;;;;;34.55;26.60;99162.03;4952928;28;20033;-90
2022/07/05 12:21:54;;;;;;;10.50;4.20;;;;;;;34.60;26.65;99163.50;4950234;28;20681;-90
2022/07/05 12:24:20;;;;;;;5.32;3.70;;;;;;;34.62;26.26;99158.25;4957347;28;20045;-91
2022/07/05 12:26:46;;;;;;;9.65;4.70;;;;;;;34.69;26.97;99154.50;4963298;28;20404;-92
2022/07/05 12:29:11;;;;;;;14.63;6.60;;;;;;;34.88;27.70;99161.22;4949800;28;20121;-94
2022/07/05 12:31:39;;;;;;;8.43;4.07;;;;;;;34.93;27.15;99147.50;4950269;28;20383;-95
2022/07/05 12:34:25;;;;;;;9.30;3.95;;;;;;;35.04;26.46;99152.00;4994918;28;20030;-94
2022/07/05 12:36:50;;;;;;;5.95;3.92;;;;;;;35.20;26.65;99157.59;4949473;28;20042;-92
2022/07/05 12:39:19;;;;;;;11.25;4.18;;;;;;;35.08;26.62;99159.06;4944575;28;20049;-93
2022/07/05 12:41:45;;;;;;;11.27;4.32;;;;;;;35.19;26.17;99154.00;4946374;28;20493;-94
2022/07/05 12:44:13;;;;;;;12.68;5.10;;;;;;;35.29;26.56;99165.34;4948861;28;20030;-95
2022/07/05 12:47:03;;;;;;;9.23;4.53;;;;;;;35.46;25.58;99157.69;4945316;28;20062;-91
2022/07/05 12:49:52;;;;;;;4.88;4.03;;;;;;;35.24;25.99;99149.88;4967548;28;20038;-94
2022/07/05 12:52:17;;;;;;;9.45;4.53;;;;;;;35.41;26.44;99154.19;4979213;28;20050;-92
2022/07/05 13:00:14;;;;;;;7.05;3.75;;;;;;;35.61;26.76;99131.63;4974753;28;20122;-93
2022/07/05 13:02:44;;;;;;;10.18;3.92;;;;;;;35.74;26.49;99133.69;4943237;28;20062;-94
2022/07/05 13:05:21;;;;;;;14.03;7.33;;;;;;;35.94;25.74;99127.84;4928205;28;20046;-91
2022/07/05 13:07:58;;;;;;;18.75;6.45;;;;;;;35.94;26.14;99134.25;4960153;28;20386;-91
2022/07/05 13:10:26;;;;;;;22.45;5.80;;;;;;;36.08;25.77;99137.84;4968071;28;20081;-93
2022/07/05 13:12:51;;;;;;;6.60;3.97;;;;;;;36.31;25.20;99134.72;4935042;28;20031;-92
2022/07/05 13:15:17;;;;;;;9.52;4.50;;;;;;;36.25;24.91;99125.28;4928794;28;20477;-90
2022/07/05 13:17:43;;;;;;;10.25;4.43;;;;;;;36.32;25.14;99129.88;4978745;28;20376;-91
2022/07/05 13:20:09;;;;;;;6.93;3.97;;;;;;;36.34;24.29;99116.19;4950597;28;20082;-93